sensor_id;sensor_type;location;lat;lon;timestamp;temperature;humidity
26035;DHT22;13809;48.632;11.576;2023-07-20T00:01:44;24.80;27.30
26035;DHT22;13809;48.632;11.576;2023-07-20T00:07:05;24.90;27.40
26035;DHT22;13809;48.632;11.576;2023-07-20T00:12:09;24.90;27.20
26035;DHT22;13809;48.632;11.576;2023-07-20T00:17:13;25.00;27.20
26035;DHT22;13809;48.632;11.576;2023-07-20T00:22:16;25.00;27.40
26035;DHT22;13809;48.632;11.576;2023-07-20T00:27:20;25.00;27.10
26035;DHT22;13809;48.632;11.576;2023-07-20T00:32:24;25.00;27.30
26035;DHT22;13809;48.632;11.576;2023-07-20T00:37:28;25.00;27.50
26035;DHT22;13809;48.632;11.576;2023-07-20T00:42:31;25.00;27.50
26035;DHT22;13809;48.632;11.576;2023-07-20T00:47:36;25.00;27.50
26035;DHT22;13809;48.632;11.576;2023-07-20T00:52:40;25.00;28.00
26035;DHT22;13809;48.632;11.576;2023-07-20T00:57:43;25.00;27.70
26035;DHT22;13809;48.632;11.576;2023-07-20T01:02:48;25.00;27.70
26035;DHT22;13809;48.632;11.576;2023-07-20T01:07:57;25.00;28.10
26035;DHT22;13809;48.632;11.576;2023-07-20T01:13:02;24.90;28.60
26035;DHT22;13809;48.632;11.576;2023-07-20T01:18:07;24.90;27.90
26035;DHT22;13809;48.632;11.576;2023-07-20T01:23:33;24.90;28.40
26035;DHT22;13809;48.632;11.576;2023-07-20T01:29:17;24.80;28.60
26035;DHT22;13809;48.632;11.576;2023-07-20T01:34:24;24.80;28.60
26035;DHT22;13809;48.632;11.576;2023-07-20T01:39:29;24.70;28.50
26035;DHT22;13809;48.632;11.576;2023-07-20T01:44:33;24.60;28.50
26035;DHT22;13809;48.632;11.576;2023-07-20T01:49:37;24.50;28.40
26035;DHT22;13809;48.632;11.576;2023-07-20T01:54:40;24.50;28.60
26035;DHT22;13809;48.632;11.576;2023-07-20T01:59:44;24.40;28.30
26035;DHT22;13809;48.632;11.576;2023-07-20T02:04:48;24.30;28.20
26035;DHT22;13809;48.632;11.576;2023-07-20T02:09:52;24.20;28.30
26035;DHT22;13809;48.632;11.576;2023-07-20T02:14:55;24.20;28.20
26035;DHT22;13809;48.632;11.576;2023-07-20T02:19:59;24.10;28.10
26035;DHT22;13809;48.632;11.576;2023-07-20T02:25:04;24.00;28.30
26035;DHT22;13809;48.632;11.576;2023-07-20T02:30:08;23.90;28.00
26035;DHT22;13809;48.632;11.576;2023-07-20T02:35:13;23.80;27.90
26035;DHT22;13809;48.632;11.576;2023-07-20T02:40:17;23.80;28.00
26035;DHT22;13809;48.632;11.576;2023-07-20T02:45:20;23.90;27.90
26035;DHT22;13809;48.632;11.576;2023-07-20T02:50:24;23.90;27.90
26035;DHT22;13809;48.632;11.576;2023-07-20T02:55:28;23.80;27.90
26035;DHT22;13809;48.632;11.576;2023-07-20T03:00:31;23.80;27.90
26035;DHT22;13809;48.632;11.576;2023-07-20T03:05:35;23.60;27.80
26035;DHT22;13809;48.632;11.576;2023-07-20T03:10:41;23.50;27.70
26035;DHT22;13809;48.632;11.576;2023-07-20T03:15:44;23.50;27.70
26035;DHT22;13809;48.632;11.576;2023-07-20T03:20:49;23.40;27.60
26035;DHT22;13809;48.632;11.576;2023-07-20T03:25:52;23.30;27.60
26035;DHT22;13809;48.632;11.576;2023-07-20T03:30:57;23.20;27.70
26035;DHT22;13809;48.632;11.576;2023-07-20T03:36:02;23.20;27.90
26035;DHT22;13809;48.632;11.576;2023-07-20T03:41:05;23.20;27.70
26035;DHT22;13809;48.632;11.576;2023-07-20T03:46:09;23.10;27.40
26035;DHT22;13809;48.632;11.576;2023-07-20T03:51:14;23.10;27.40
26035;DHT22;13809;48.632;11.576;2023-07-20T03:56:17;23.10;27.40
26035;DHT22;13809;48.632;11.576;2023-07-20T04:01:20;23.10;27.40
26035;DHT22;13809;48.632;11.576;2023-07-20T04:06:25;23.00;27.40
26035;DHT22;13809;48.632;11.576;2023-07-20T04:11:29;22.90;27.30
26035;DHT22;13809;48.632;11.576;2023-07-20T04:16:32;22.90;27.30
26035;DHT22;13809;48.632;11.576;2023-07-20T04:21:39;22.90;27.30
26035;DHT22;13809;48.632;11.576;2023-07-20T04:26:43;22.80;27.40
26035;DHT22;13809;48.632;11.576;2023-07-20T04:31:46;22.70;27.20
26035;DHT22;13809;48.632;11.576;2023-07-20T04:36:51;22.70;27.60
26035;DHT22;13809;48.632;11.576;2023-07-20T04:41:55;22.70;27.30
26035;DHT22;13809;48.632;11.576;2023-07-20T04:46:58;22.70;27.10
26035;DHT22;13809;48.632;11.576;2023-07-20T04:52:04;22.70;27.50
26035;DHT22;13809;48.632;11.576;2023-07-20T04:57:12;22.60;27.40
26035;DHT22;13809;48.632;11.576;2023-07-20T05:02:15;22.60;27.70
26035;DHT22;13809;48.632;11.576;2023-07-20T05:07:20;22.50;27.50
26035;DHT22;13809;48.632;11.576;2023-07-20T05:12:23;22.50;27.70
26035;DHT22;13809;48.632;11.576;2023-07-20T05:17:26;22.50;27.70
26035;DHT22;13809;48.632;11.576;2023-07-20T05:22:30;22.40;27.80
26035;DHT22;13809;48.632;11.576;2023-07-20T05:27:34;22.40;28.10
26035;DHT22;13809;48.632;11.576;2023-07-20T05:32:37;22.40;28.10
26035;DHT22;13809;48.632;11.576;2023-07-20T05:37:42;22.50;28.20
26035;DHT22;13809;48.632;11.576;2023-07-20T05:42:45;22.40;28.10
26035;DHT22;13809;48.632;11.576;2023-07-20T05:47:49;22.50;28.20
26035;DHT22;13809;48.632;11.576;2023-07-20T05:52:54;22.60;28.10
26035;DHT22;13809;48.632;11.576;2023-07-20T05:57:57;22.60;28.10
26035;DHT22;13809;48.632;11.576;2023-07-20T06:03:01;22.70;28.20
26035;DHT22;13809;48.632;11.576;2023-07-20T06:08:05;22.70;27.90
26035;DHT22;13809;48.632;11.576;2023-07-20T06:13:09;22.80;28.10
26035;DHT22;13809;48.632;11.576;2023-07-20T06:18:14;22.80;28.10
26035;DHT22;13809;48.632;11.576;2023-07-20T06:23:19;22.90;28.00
26035;DHT22;13809;48.632;11.576;2023-07-20T06:28:22;22.90;27.80
26035;DHT22;13809;48.632;11.576;2023-07-20T06:33:26;22.90;27.80
26035;DHT22;13809;48.632;11.576;2023-07-20T06:38:31;22.90;28.10
26035;DHT22;13809;48.632;11.576;2023-07-20T06:43:34;23.00;28.10
26035;DHT22;13809;48.632;11.576;2023-07-20T06:48:41;23.00;28.30
26035;DHT22;13809;48.632;11.576;2023-07-20T06:53:48;23.00;28.10
26035;DHT22;13809;48.632;11.576;2023-07-20T06:58:52;23.00;28.60
26035;DHT22;13809;48.632;11.576;2023-07-20T07:03:55;23.10;28.10
26035;DHT22;13809;48.632;11.576;2023-07-20T07:09:00;23.10;27.90
26035;DHT22;13809;48.632;11.576;2023-07-20T07:14:04;23.10;28.20
26035;DHT22;13809;48.632;11.576;2023-07-20T07:19:09;23.10;28.10
26035;DHT22;13809;48.632;11.576;2023-07-20T07:24:13;23.10;28.30
26035;DHT22;13809;48.632;11.576;2023-07-20T07:29:21;23.20;28.50
26035;DHT22;13809;48.632;11.576;2023-07-20T07:34:24;23.20;28.20
26035;DHT22;13809;48.632;11.576;2023-07-20T07:39:29;23.30;28.30
26035;DHT22;13809;48.632;11.576;2023-07-20T07:44:36;23.40;28.40
26035;DHT22;13809;48.632;11.576;2023-07-20T07:49:41;23.60;28.10
26035;DHT22;13809;48.632;11.576;2023-07-20T07:54:49;23.80;28.10
26035;DHT22;13809;48.632;11.576;2023-07-20T07:59:52;23.90;28.10
26035;DHT22;13809;48.632;11.576;2023-07-20T08:04:55;23.90;27.90
26035;DHT22;13809;48.632;11.576;2023-07-20T08:10:00;24.00;28.10
26035;DHT22;13809;48.632;11.576;2023-07-20T08:15:06;24.00;28.00
26035;DHT22;13809;48.632;11.576;2023-07-20T08:20:11;24.10;27.70
26035;DHT22;13809;48.632;11.576;2023-07-20T08:25:17;24.10;27.50
26035;DHT22;13809;48.632;11.576;2023-07-20T08:30:21;24.20;27.30
26035;DHT22;13809;48.632;11.576;2023-07-20T08:35:25;24.30;27.80
26035;DHT22;13809;48.632;11.576;2023-07-20T08:40:30;24.50;27.70
26035;DHT22;13809;48.632;11.576;2023-07-20T08:45:34;24.70;26.90
26035;DHT22;13809;48.632;11.576;2023-07-20T08:50:39;24.90;27.10
26035;DHT22;13809;48.632;11.576;2023-07-20T08:55:45;25.00;26.50
26035;DHT22;13809;48.632;11.576;2023-07-20T09:00:49;25.10;26.10
26035;DHT22;13809;48.632;11.576;2023-07-20T09:05:55;25.10;26.30
26035;DHT22;13809;48.632;11.576;2023-07-20T09:10:59;25.20;26.50
26035;DHT22;13809;48.632;11.576;2023-07-20T09:16:03;25.40;26.30
26035;DHT22;13809;48.632;11.576;2023-07-20T09:21:07;25.50;26.70
26035;DHT22;13809;48.632;11.576;2023-07-20T09:26:12;25.60;25.40
26035;DHT22;13809;48.632;11.576;2023-07-20T09:31:16;25.60;24.90
26035;DHT22;13809;48.632;11.576;2023-07-20T09:36:20;25.70;25.30
26035;DHT22;13809;48.632;11.576;2023-07-20T09:41:45;25.70;24.90
26035;DHT22;13809;48.632;11.576;2023-07-20T09:46:49;25.80;24.40
26035;DHT22;13809;48.632;11.576;2023-07-20T09:51:57;25.80;24.40
26035;DHT22;13809;48.632;11.576;2023-07-20T09:57:04;26.00;24.40
26035;DHT22;13809;48.632;11.576;2023-07-20T10:02:20;26.00;24.10
26035;DHT22;13809;48.632;11.576;2023-07-20T10:07:26;26.00;24.00
26035;DHT22;13809;48.632;11.576;2023-07-20T10:12:32;26.10;24.20
26035;DHT22;13809;48.632;11.576;2023-07-20T10:17:37;26.20;24.30
26035;DHT22;13809;48.632;11.576;2023-07-20T10:22:44;26.40;24.30
26035;DHT22;13809;48.632;11.576;2023-07-20T10:27:49;26.60;24.60
26035;DHT22;13809;48.632;11.576;2023-07-20T10:32:53;26.90;24.30
26035;DHT22;13809;48.632;11.576;2023-07-20T10:38:00;27.10;23.90
26035;DHT22;13809;48.632;11.576;2023-07-20T10:43:06;27.30;23.00
26035;DHT22;13809;48.632;11.576;2023-07-20T10:48:14;27.40;22.90
26035;DHT22;13809;48.632;11.576;2023-07-20T10:53:19;27.40;22.80
26035;DHT22;13809;48.632;11.576;2023-07-20T10:58:23;27.50;22.90
26035;DHT22;13809;48.632;11.576;2023-07-20T11:03:33;27.50;22.90
26035;DHT22;13809;48.632;11.576;2023-07-20T11:08:40;27.50;22.10
26035;DHT22;13809;48.632;11.576;2023-07-20T11:13:55;27.40;22.50
26035;DHT22;13809;48.632;11.576;2023-07-20T11:18:59;27.30;21.60
26035;DHT22;13809;48.632;11.576;2023-07-20T11:24:04;27.30;22.60
26035;DHT22;13809;48.632;11.576;2023-07-20T11:29:09;27.20;22.30
26035;DHT22;13809;48.632;11.576;2023-07-20T11:34:31;27.20;21.80
26035;DHT22;13809;48.632;11.576;2023-07-20T11:39:34;27.20;22.20
26035;DHT22;13809;48.632;11.576;2023-07-20T11:44:39;27.20;21.90
26035;DHT22;13809;48.632;11.576;2023-07-20T11:49:43;27.10;22.10
26035;DHT22;13809;48.632;11.576;2023-07-20T11:54:47;27.10;21.80
26035;DHT22;13809;48.632;11.576;2023-07-20T11:59:56;27.20;22.10
26035;DHT22;13809;48.632;11.576;2023-07-20T12:05:02;27.30;21.30
26035;DHT22;13809;48.632;11.576;2023-07-20T12:10:07;27.30;22.10
26035;DHT22;13809;48.632;11.576;2023-07-20T12:15:16;27.40;22.20
26035;DHT22;13809;48.632;11.576;2023-07-20T12:20:27;27.50;21.10
26035;DHT22;13809;48.632;11.576;2023-07-20T12:25:41;27.70;20.70
26035;DHT22;13809;48.632;11.576;2023-07-20T12:30:47;27.80;20.60
26035;DHT22;13809;48.632;11.576;2023-07-20T12:35:58;27.90;18.90
26035;DHT22;13809;48.632;11.576;2023-07-20T12:41:02;27.90;20.00
26035;DHT22;13809;48.632;11.576;2023-07-20T12:46:07;28.00;20.10
26035;DHT22;13809;48.632;11.576;2023-07-20T12:51:11;28.10;19.60
26035;DHT22;13809;48.632;11.576;2023-07-20T12:56:14;28.20;19.70
26035;DHT22;13809;48.632;11.576;2023-07-20T13:01:21;28.10;19.30
26035;DHT22;13809;48.632;11.576;2023-07-20T13:06:26;28.00;18.60
26035;DHT22;13809;48.632;11.576;2023-07-20T13:11:38;28.00;19.00
26035;DHT22;13809;48.632;11.576;2023-07-20T13:16:44;27.90;18.60
26035;DHT22;13809;48.632;11.576;2023-07-20T13:21:48;27.90;18.50
26035;DHT22;13809;48.632;11.576;2023-07-20T13:26:51;27.90;18.90
26035;DHT22;13809;48.632;11.576;2023-07-20T13:31:56;27.90;18.80
26035;DHT22;13809;48.632;11.576;2023-07-20T13:37:00;27.90;18.00
26035;DHT22;13809;48.632;11.576;2023-07-20T13:42:04;27.90;18.50
26035;DHT22;13809;48.632;11.576;2023-07-20T13:47:11;28.00;18.70
26035;DHT22;13809;48.632;11.576;2023-07-20T13:52:17;28.10;17.60
26035;DHT22;13809;48.632;11.576;2023-07-20T13:57:23;28.30;18.10
26035;DHT22;13809;48.632;11.576;2023-07-20T14:02:29;28.40;17.60
26035;DHT22;13809;48.632;11.576;2023-07-20T14:07:35;28.50;16.90
26035;DHT22;13809;48.632;11.576;2023-07-20T14:12:39;28.50;17.30
26035;DHT22;13809;48.632;11.576;2023-07-20T14:17:44;28.50;17.40
26035;DHT22;13809;48.632;11.576;2023-07-20T14:22:47;28.60;16.50
26035;DHT22;13809;48.632;11.576;2023-07-20T14:27:52;28.60;16.60
26035;DHT22;13809;48.632;11.576;2023-07-20T14:32:57;28.60;16.90
26035;DHT22;13809;48.632;11.576;2023-07-20T14:38:00;28.70;16.40
26035;DHT22;13809;48.632;11.576;2023-07-20T14:43:03;28.70;16.60
26035;DHT22;13809;48.632;11.576;2023-07-20T14:48:08;28.90;16.40
26035;DHT22;13809;48.632;11.576;2023-07-20T14:53:12;28.90;15.80
26035;DHT22;13809;48.632;11.576;2023-07-20T14:58:20;28.90;15.80
26035;DHT22;13809;48.632;11.576;2023-07-20T15:03:25;28.90;16.00
26035;DHT22;13809;48.632;11.576;2023-07-20T15:08:28;29.00;15.80
26035;DHT22;13809;48.632;11.576;2023-07-20T15:13:31;29.00;16.00
26035;DHT22;13809;48.632;11.576;2023-07-20T15:18:35;29.10;15.90
26035;DHT22;13809;48.632;11.576;2023-07-20T15:23:49;29.20;15.70
26035;DHT22;13809;48.632;11.576;2023-07-20T15:28:52;29.20;15.70
26035;DHT22;13809;48.632;11.576;2023-07-20T15:33:56;29.30;16.20
26035;DHT22;13809;48.632;11.576;2023-07-20T15:39:00;29.30;14.90
26035;DHT22;13809;48.632;11.576;2023-07-20T15:44:03;29.30;15.40
26035;DHT22;13809;48.632;11.576;2023-07-20T15:49:08;29.40;15.90
26035;DHT22;13809;48.632;11.576;2023-07-20T15:54:11;29.40;15.10
26035;DHT22;13809;48.632;11.576;2023-07-20T15:59:16;29.50;15.60
26035;DHT22;13809;48.632;11.576;2023-07-20T16:04:20;29.50;14.50
26035;DHT22;13809;48.632;11.576;2023-07-20T16:09:24;29.50;14.50
26035;DHT22;13809;48.632;11.576;2023-07-20T16:14:27;29.40;15.00
26035;DHT22;13809;48.632;11.576;2023-07-20T16:19:51;29.40;14.80
26035;DHT22;13809;48.632;11.576;2023-07-20T16:24:55;29.30;14.60
26035;DHT22;13809;48.632;11.576;2023-07-20T16:29:58;29.30;15.20
26035;DHT22;13809;48.632;11.576;2023-07-20T16:35:04;29.20;14.70
26035;DHT22;13809;48.632;11.576;2023-07-20T16:40:11;29.10;14.40
26035;DHT22;13809;48.632;11.576;2023-07-20T16:45:19;29.10;15.00
26035;DHT22;13809;48.632;11.576;2023-07-20T16:50:24;29.10;14.90
26035;DHT22;13809;48.632;11.576;2023-07-20T16:55:27;29.10;14.60
26035;DHT22;13809;48.632;11.576;2023-07-20T17:00:31;29.10;14.90
26035;DHT22;13809;48.632;11.576;2023-07-20T17:05:35;29.20;14.80
26035;DHT22;13809;48.632;11.576;2023-07-20T17:10:38;29.10;14.50
26035;DHT22;13809;48.632;11.576;2023-07-20T17:15:45;29.10;14.70
26035;DHT22;13809;48.632;11.576;2023-07-20T17:20:50;29.10;14.30
26035;DHT22;13809;48.632;11.576;2023-07-20T17:25:53;29.20;14.70
26035;DHT22;13809;48.632;11.576;2023-07-20T17:31:00;29.20;14.80
26035;DHT22;13809;48.632;11.576;2023-07-20T17:36:05;29.20;14.50
26035;DHT22;13809;48.632;11.576;2023-07-20T17:41:14;29.20;14.60
26035;DHT22;13809;48.632;11.576;2023-07-20T17:46:18;29.10;14.50
26035;DHT22;13809;48.632;11.576;2023-07-20T17:51:27;29.10;14.60
26035;DHT22;13809;48.632;11.576;2023-07-20T17:56:32;29.00;14.40
26035;DHT22;13809;48.632;11.576;2023-07-20T18:01:36;29.00;14.70
26035;DHT22;13809;48.632;11.576;2023-07-20T18:06:41;29.00;14.70
26035;DHT22;13809;48.632;11.576;2023-07-20T18:11:44;29.00;14.70
26035;DHT22;13809;48.632;11.576;2023-07-20T18:16:47;29.00;14.90
26035;DHT22;13809;48.632;11.576;2023-07-20T18:21:52;28.90;14.60
26035;DHT22;13809;48.632;11.576;2023-07-20T18:26:55;28.90;14.50
26035;DHT22;13809;48.632;11.576;2023-07-20T18:31:59;28.90;15.10
26035;DHT22;13809;48.632;11.576;2023-07-20T18:37:04;28.80;15.30
26035;DHT22;13809;48.632;11.576;2023-07-20T18:42:07;28.70;15.60
26035;DHT22;13809;48.632;11.576;2023-07-20T18:47:11;28.60;15.90
26035;DHT22;13809;48.632;11.576;2023-07-20T18:52:15;28.50;16.00
26035;DHT22;13809;48.632;11.576;2023-07-20T18:57:19;28.40;16.20
26035;DHT22;13809;48.632;11.576;2023-07-20T19:02:26;28.30;16.40
26035;DHT22;13809;48.632;11.576;2023-07-20T19:07:31;28.20;16.50
26035;DHT22;13809;48.632;11.576;2023-07-20T19:12:38;28.10;16.80
26035;DHT22;13809;48.632;11.576;2023-07-20T19:17:51;28.00;17.30
26035;DHT22;13809;48.632;11.576;2023-07-20T19:22:58;27.80;17.40
26035;DHT22;13809;48.632;11.576;2023-07-20T19:28:03;27.70;17.50
26035;DHT22;13809;48.632;11.576;2023-07-20T19:33:07;27.60;17.50
26035;DHT22;13809;48.632;11.576;2023-07-20T19:38:12;27.50;17.70
26035;DHT22;13809;48.632;11.576;2023-07-20T19:43:24;27.40;18.00
26035;DHT22;13809;48.632;11.576;2023-07-20T19:48:28;27.20;18.30
26035;DHT22;13809;48.632;11.576;2023-07-20T19:53:33;27.10;17.80
26035;DHT22;13809;48.632;11.576;2023-07-20T19:58:37;26.90;18.00
26035;DHT22;13809;48.632;11.576;2023-07-20T20:03:40;26.60;18.20
26035;DHT22;13809;48.632;11.576;2023-07-20T20:08:45;26.40;18.80
26035;DHT22;13809;48.632;11.576;2023-07-20T20:13:50;26.30;19.20
26035;DHT22;13809;48.632;11.576;2023-07-20T20:18:54;26.20;19.10
26035;DHT22;13809;48.632;11.576;2023-07-20T20:23:59;26.00;19.00
26035;DHT22;13809;48.632;11.576;2023-07-20T20:29:03;25.90;19.10
26035;DHT22;13809;48.632;11.576;2023-07-20T20:34:06;25.80;18.90
26035;DHT22;13809;48.632;11.576;2023-07-20T20:39:11;25.60;18.80
26035;DHT22;13809;48.632;11.576;2023-07-20T20:44:17;25.40;19.60
26035;DHT22;13809;48.632;11.576;2023-07-20T20:49:23;25.20;19.80
26035;DHT22;13809;48.632;11.576;2023-07-20T20:54:28;24.80;19.60
26035;DHT22;13809;48.632;11.576;2023-07-20T20:59:31;24.60;20.40
26035;DHT22;13809;48.632;11.576;2023-07-20T21:04:34;24.50;20.40
26035;DHT22;13809;48.632;11.576;2023-07-20T21:09:39;24.40;20.50
26035;DHT22;13809;48.632;11.576;2023-07-20T21:14:43;24.30;20.90
26035;DHT22;13809;48.632;11.576;2023-07-20T21:19:46;24.20;20.90
26035;DHT22;13809;48.632;11.576;2023-07-20T21:24:51;24.10;21.10
26035;DHT22;13809;48.632;11.576;2023-07-20T21:29:54;23.80;21.60
26035;DHT22;13809;48.632;11.576;2023-07-20T21:34:57;23.60;21.40
26035;DHT22;13809;48.632;11.576;2023-07-20T21:40:04;23.50;21.40
26035;DHT22;13809;48.632;11.576;2023-07-20T21:45:09;23.30;22.20
26035;DHT22;13809;48.632;11.576;2023-07-20T21:50:12;23.10;22.00
26035;DHT22;13809;48.632;11.576;2023-07-20T21:55:17;22.80;22.10
26035;DHT22;13809;48.632;11.576;2023-07-20T22:00:22;22.70;22.80
26035;DHT22;13809;48.632;11.576;2023-07-20T22:05:26;22.60;22.70
26035;DHT22;13809;48.632;11.576;2023-07-20T22:10:32;22.60;23.00
26035;DHT22;13809;48.632;11.576;2023-07-20T22:15:35;22.50;23.50
26035;DHT22;13809;48.632;11.576;2023-07-20T22:20:38;22.40;23.00
26035;DHT22;13809;48.632;11.576;2023-07-20T22:25:43;22.10;23.10
26035;DHT22;13809;48.632;11.576;2023-07-20T22:30:46;22.00;24.00
26035;DHT22;13809;48.632;11.576;2023-07-20T22:35:53;21.80;23.60
26035;DHT22;13809;48.632;11.576;2023-07-20T22:40:57;21.70;24.10
26035;DHT22;13809;48.632;11.576;2023-07-20T22:46:01;21.70;24.70
26035;DHT22;13809;48.632;11.576;2023-07-20T22:51:04;21.70;24.40
26035;DHT22;13809;48.632;11.576;2023-07-20T22:56:09;21.70;24.60
26035;DHT22;13809;48.632;11.576;2023-07-20T23:01:13;21.70;24.90
26035;DHT22;13809;48.632;11.576;2023-07-20T23:06:16;21.70;24.90
26035;DHT22;13809;48.632;11.576;2023-07-20T23:11:21;21.70;24.80
26035;DHT22;13809;48.632;11.576;2023-07-20T23:16:25;21.80;25.50
26035;DHT22;13809;48.632;11.576;2023-07-20T23:21:29;21.70;25.00
26035;DHT22;13809;48.632;11.576;2023-07-20T23:26:34;21.60;25.10
26035;DHT22;13809;48.632;11.576;2023-07-20T23:31:37;21.60;25.50
26035;DHT22;13809;48.632;11.576;2023-07-20T23:36:40;21.70;25.20
26035;DHT22;13809;48.632;11.576;2023-07-20T23:41:45;21.70;25.40
26035;DHT22;13809;48.632;11.576;2023-07-20T23:46:48;21.80;25.90
26035;DHT22;13809;48.632;11.576;2023-07-20T23:51:52;21.90;25.70
26035;DHT22;13809;48.632;11.576;2023-07-20T23:56:56;21.80;25.60
